Airfield :
LOGIN :

Register | Disclaimer

   EN    FR    IT 

 










Legend :    VFR   Marginal VFR   IFR   Intensive IFR   Very Intensive IFR
Visi :
Ceiling :
>= 8 km
>= 3000ft
5 to 8 km
1000 to 3000 ft
1500m to 5 km
500 to 1000 ft
800 to 1500m
200 to 500 ft
< 800m
< 200 ft
Symbols :   Thunderstorms  Fog  Heavy snow  Heavy precipitations  Wind > 20 kt
SIGMETs :     Misc.  Thunderstorms  Icing  Turbulence  Mountain Waves  Volcanic Ashes







- Airport Elevation : 459 ft
- IATA code : CER
- Download approach charts


LFRC - Cherbourg / Maupertus

CURRENT METAR :
  • 161200Z AUTO 20016KT 9999 OVC011 07/05 Q1007 TEMPO 3000 BKN004 BECMG 21017G30KT

EXPIRED METARs :
  • 161130Z AUTO 20016KT 9000 BKN013 OVC018 08/05 Q1008 TEMPO 3000 BKN004 BECMG 21017G30KT
  • 161100Z AUTO 20014KT 9999 SCT013 BKN022 BKN027 08/05 Q1008 TEMPO 3000 BKN004 BECMG 21017G30KT
  • 161030Z AUTO 20014KT 9999 FEW016 SCT023 BKN036 07/04 Q1009 TEMPO 3000 BKN004 BECMG 21017G30KT
  • 161000Z AUTO 20016KT 9999 FEW012 BKN036 07/04 Q1009 TEMPO 3000 BKN004 BECMG 21017G30KT
  • 160930Z AUTO 19016KT 9999 BKN038 OVC150 06/03 Q1009 TEMPO 3000 BKN004 BECMG 21017G30KT

TAF TAF LFRC
Valid from the 16 at 12:00 until the 16 at 21:00 UTC


161100Z 1612/1621 21017G30KT 6000 RADZ BKN014
TEMPO 1612/1617 3000 BKN004
BECMG 1617/1619 27015G25KT SCT030
No reported NOTAMs for that airfield.



MET'MAP, your aeronautical weather chart ! - Copyright ORBIFLY December 2007 - Disclaimer

ORBIFLY MET'MAP TEAM :

Programming & Development : Alexandra Zaïnal
Concept & Development : Baudouin d'Aumeries
Co-Development & Prog : Marc-Olivier Méhu
Technical & hardware support : Manuel Goepfert

Contact : metmap@orbifly.com




SOURCES & CREDITS :

   NOAA